Truth — WYV5559 — position and weather

sailwx.info

Track history (hours):
 
Tides and Currents Weather Stations Pressure Air Temp Water Temp Dewpoint Dewpoint Depression Visibility Wind Speed Wind Dir Waves Ship Positions

Truth

Owner: TRUTH AQUATIES INC, SANTA BARBARA, CA. More information available from US FCC via Universal Licensing System and Coast Guard Vessel Documentation Center.

Last reported at 2014-Nov-29 03:15 UTC. Time now 2014-Dec-20 05:53 UTC.
Position N 34°24' W 119°42'.
Warning: this ship's position is 21 days out of date.

Length 22 m.

Type: Diving. MMSI: 367384840.

Date/timePositionNaut miles runAvg speedWind from/ knotsBaromVisibWave heightAir tempDewpointWater temp
2014-Nov-29 03:15N 34°24' W 119°42'0 0.0
2014-Nov-27 01:06N 34°24' W 119°42'0 0.0
2014-Nov-26 05:18N 34°24' W 119°42'0 0.0
2014-Nov-25 13:18N 34°24' W 119°42'0 0.0
2014-Nov-25 09:24N 34°24' W 119°42'0 0.0
2014-Nov-25 07:30N 34°24' W 119°42'2 0.2
2014-Nov-24 18:30N 34°24' W 119°44'2 0.1
2014-Nov-24 00:04N 34°24' W 119°42'0 0.0
2014-Nov-23 23:28N 34°24' W 119°42'0 0.0
2014-Nov-23 22:16N 34°24' W 119°42'0 0.0
2014-Nov-23 21:29N 34°24' W 119°42'0 0.0
2014-Nov-23 18:28N 34°24' W 119°42'0 0.0
2014-Nov-23 17:28N 34°24' W 119°42'0 0.0
2014-Nov-23 16:22N 34°24' W 119°42'0 0.0
2014-Nov-23 15:28N 34°24' W 119°42'0 0.0
2014-Nov-23 14:22N 34°24' W 119°42'0 0.0
2014-Nov-23 13:28N 34°24' W 119°42'0 0.0
2014-Nov-23 12:29N 34°24' W 119°42'0 0.0
2014-Nov-23 11:23N 34°24' W 119°42'0 0.0
2014-Nov-23 10:29N 34°24' W 119°42'0 0.0
2014-Nov-23 09:29N 34°24' W 119°42'0 0.0
2014-Nov-23 08:29N 34°24' W 119°42'0 0.0
2014-Nov-23 07:29N 34°24' W 119°42'0 0.0
2014-Nov-23 06:29N 34°24' W 119°42'0 0.0
2014-Nov-23 05:29N 34°24' W 119°42'0 0.0
2014-Nov-23 04:29N 34°24' W 119°42'0 0.0
2014-Nov-23 03:23N 34°24' W 119°42'0 0.0
2014-Nov-23 01:05N 34°24' W 119°42'0 0.0
2014-Nov-23 00:29N 34°24' W 119°42'2 1.7
2014-Nov-22 23:32N 34°23' W 119°43'4 3.8
2014-Nov-22 22:32N 34°25' W 119°47'3 2.7
2014-Nov-22 21:34N 34°24' W 119°50'2 1.7
2014-Nov-22 20:31N 34°24' W 119°52'1 1.2
2014-Nov-22 19:33N 34°25' W 119°54'3 2.9
2014-Nov-22 18:31N 34°25' W 119°57'0 0.0
2014-Nov-22 17:22N 34°25' W 119°57'2 1.9
2014-Nov-22 16:33N 34°25' W 119°55'10 9.6
2014-Nov-22 15:33N 34°23' W 119°44'2 1.9
2014-Nov-22 14:21N 34°24' W 119°42'  
Track history (hours):
 
Tides and Currents Weather Stations Pressure Air Temp Water Temp Dewpoint Dewpoint Depression Visibility Wind Speed Wind Dir Waves Ship Positions

Truth

Owner: TRUTH AQUATIES INC, SANTA BARBARA, CA. More information available from US FCC via Universal Licensing System and Coast Guard Vessel Documentation Center.

Last reported at 2014-Nov-29 03:15 UTC. Time now 2014-Dec-20 05:53 UTC.
Position N 34°24' W 119°42'.
Warning: this ship's position is 21 days out of date.

Length 22 m.

Type: Diving. MMSI: 367384840.

Date/timePositionNaut miles runAvg speedWind from/ knotsBaromVisibWave heightAir tempDewpointWater temp
2014-Nov-29 03:15N 34°24' W 119°42'0 0.0
2014-Nov-27 01:06N 34°24' W 119°42'0 0.0
2014-Nov-26 05:18N 34°24' W 119°42'0 0.0
2014-Nov-25 13:18N 34°24' W 119°42'0 0.0
2014-Nov-25 09:24N 34°24' W 119°42'0 0.0
2014-Nov-25 07:30N 34°24' W 119°42'2 0.2
2014-Nov-24 18:30N 34°24' W 119°44'2 0.1
2014-Nov-24 00:04N 34°24' W 119°42'0 0.0
2014-Nov-23 23:28N 34°24' W 119°42'0 0.0
2014-Nov-23 22:16N 34°24' W 119°42'0 0.0
2014-Nov-23 21:29N 34°24' W 119°42'0 0.0
2014-Nov-23 18:28N 34°24' W 119°42'0 0.0
2014-Nov-23 17:28N 34°24' W 119°42'0 0.0
2014-Nov-23 16:22N 34°24' W 119°42'0 0.0
2014-Nov-23 15:28N 34°24' W 119°42'0 0.0
2014-Nov-23 14:22N 34°24' W 119°42'0 0.0
2014-Nov-23 13:28N 34°24' W 119°42'0 0.0
2014-Nov-23 12:29N 34°24' W 119°42'0 0.0
2014-Nov-23 11:23N 34°24' W 119°42'0 0.0
2014-Nov-23 10:29N 34°24' W 119°42'0 0.0
2014-Nov-23 09:29N 34°24' W 119°42'0 0.0
2014-Nov-23 08:29N 34°24' W 119°42'0 0.0
2014-Nov-23 07:29N 34°24' W 119°42'0 0.0
2014-Nov-23 06:29N 34°24' W 119°42'0 0.0
2014-Nov-23 05:29N 34°24' W 119°42'0 0.0
2014-Nov-23 04:29N 34°24' W 119°42'0 0.0
2014-Nov-23 03:23N 34°24' W 119°42'0 0.0
2014-Nov-23 01:05N 34°24' W 119°42'0 0.0
2014-Nov-23 00:29N 34°24' W 119°42'2 1.7
2014-Nov-22 23:32N 34°23' W 119°43'4 3.8
2014-Nov-22 22:32N 34°25' W 119°47'3 2.7
2014-Nov-22 21:34N 34°24' W 119°50'2 1.7
2014-Nov-22 20:31N 34°24' W 119°52'1 1.2
2014-Nov-22 19:33N 34°25' W 119°54'3 2.9
2014-Nov-22 18:31N 34°25' W 119°57'0 0.0
2014-Nov-22 17:22N 34°25' W 119°57'2 1.9
2014-Nov-22 16:33N 34°25' W 119°55'10 9.6
2014-Nov-22 15:33N 34°23' W 119°44'2 1.9
2014-Nov-22 14:21N 34°24' W 119°42'  

Dump ship's entire track history